sensor_id;sensor_type;location;lat;lon;timestamp;pressure;altitude;pressure_sealevel;temperature;humidity
11542;BME280;5827;49.482;7.716;2023-03-01T00:00:47;99775.31;;;0.29;74.19
11542;BME280;5827;49.482;7.716;2023-03-01T00:02:49;99774.47;;;0.29;74.41
11542;BME280;5827;49.482;7.716;2023-03-01T00:04:50;99777.13;;;0.29;74.41
11542;BME280;5827;49.482;7.716;2023-03-01T00:06:52;99774.31;;;0.30;74.40
11542;BME280;5827;49.482;7.716;2023-03-01T00:08:54;99781.94;;;0.33;74.04
11542;BME280;5827;49.482;7.716;2023-03-01T00:11:03;99773.69;;;0.36;73.72
11542;BME280;5827;49.482;7.716;2023-03-01T00:13:05;99767.56;;;0.28;74.84
11542;BME280;5827;49.482;7.716;2023-03-01T00:15:08;99775.75;;;0.24;74.53
11542;BME280;5827;49.482;7.716;2023-03-01T00:17:09;99775.41;;;0.19;75.17
11542;BME280;5827;49.482;7.716;2023-03-01T00:19:13;99773.03;;;0.34;73.96
11542;BME280;5827;49.482;7.716;2023-03-01T00:21:15;99777.84;;;0.39;74.33
11542;BME280;5827;49.482;7.716;2023-03-01T00:23:16;99764.97;;;0.36;74.73
11542;BME280;5827;49.482;7.716;2023-03-01T00:25:18;99763.47;;;0.33;74.15
11542;BME280;5827;49.482;7.716;2023-03-01T00:27:19;99772.22;;;0.34;74.46
11542;BME280;5827;49.482;7.716;2023-03-01T00:29:21;99761.13;;;0.30;74.33
11542;BME280;5827;49.482;7.716;2023-03-01T00:31:26;99764.03;;;0.19;74.53
11542;BME280;5827;49.482;7.716;2023-03-01T00:33:28;99767.16;;;0.22;75.65
11542;BME280;5827;49.482;7.716;2023-03-01T00:35:29;99762.75;;;0.23;75.22
11542;BME280;5827;49.482;7.716;2023-03-01T00:37:31;99766.97;;;0.16;75.78
11542;BME280;5827;49.482;7.716;2023-03-01T00:39:32;99759.78;;;0.26;75.21
11542;BME280;5827;49.482;7.716;2023-03-01T00:41:34;99760.41;;;0.20;75.52
11542;BME280;5827;49.482;7.716;2023-03-01T00:43:36;99760.03;;;0.33;75.41
11542;BME280;5827;49.482;7.716;2023-03-01T00:45:37;99757.16;;;0.26;75.25
11542;BME280;5827;49.482;7.716;2023-03-01T00:47:40;99751.88;;;0.26;75.31
11542;BME280;5827;49.482;7.716;2023-03-01T00:49:41;99762.69;;;0.41;74.98
11542;BME280;5827;49.482;7.716;2023-03-01T00:51:43;99769.88;;;0.31;74.72
11542;BME280;5827;49.482;7.716;2023-03-01T00:53:45;99771.13;;;0.44;74.79
11542;BME280;5827;49.482;7.716;2023-03-01T00:55:46;99767.22;;;0.31;74.96
11542;BME280;5827;49.482;7.716;2023-03-01T00:57:48;99773.34;;;0.13;75.53
11542;BME280;5827;49.482;7.716;2023-03-01T00:59:50;99771.06;;;0.36;74.54
11542;BME280;5827;49.482;7.716;2023-03-01T01:01:52;99773.09;;;0.42;74.68
11542;BME280;5827;49.482;7.716;2023-03-01T01:03:56;99774.69;;;0.35;75.22
11542;BME280;5827;49.482;7.716;2023-03-01T01:05:58;99776.66;;;0.33;74.49
11542;BME280;5827;49.482;7.716;2023-03-01T01:08:09;99774.13;;;0.23;75.18
11542;BME280;5827;49.482;7.716;2023-03-01T01:10:11;99772.44;;;0.22;75.58
11542;BME280;5827;49.482;7.716;2023-03-01T01:12:17;99770.66;;;0.23;75.75
11542;BME280;5827;49.482;7.716;2023-03-01T01:14:19;99770.03;;;0.29;75.17
11542;BME280;5827;49.482;7.716;2023-03-01T01:16:23;99753.78;;;0.16;76.19
11542;BME280;5827;49.482;7.716;2023-03-01T01:18:25;99754.44;;;0.18;76.14
11542;BME280;5827;49.482;7.716;2023-03-01T01:20:28;99752.97;;;0.15;76.34
11542;BME280;5827;49.482;7.716;2023-03-01T01:22:29;99747.16;;;0.12;77.25
11542;BME280;5827;49.482;7.716;2023-03-01T01:24:31;99737.97;;;0.16;76.49
11542;BME280;5827;49.482;7.716;2023-03-01T01:26:33;99744.44;;;0.04;77.24
11542;BME280;5827;49.482;7.716;2023-03-01T01:28:35;99732.63;;;0.08;76.69
11542;BME280;5827;49.482;7.716;2023-03-01T01:30:37;99733.41;;;0.00;77.25
11542;BME280;5827;49.482;7.716;2023-03-01T01:32:39;99726.25;;;0.10;76.56
11542;BME280;5827;49.482;7.716;2023-03-01T01:34:40;99735.63;;;0.13;76.29
11542;BME280;5827;49.482;7.716;2023-03-01T01:36:43;99732.09;;;0.04;77.32
11542;BME280;5827;49.482;7.716;2023-03-01T01:38:45;99730.16;;;0.06;76.89
11542;BME280;5827;49.482;7.716;2023-03-01T01:40:47;99729.41;;;0.14;77.18
11542;BME280;5827;49.482;7.716;2023-03-01T01:42:49;99728.34;;;0.07;77.23
11542;BME280;5827;49.482;7.716;2023-03-01T01:45:24;99722.63;;;0.11;77.42
11542;BME280;5827;49.482;7.716;2023-03-01T01:47:26;99721.25;;;0.07;77.65
11542;BME280;5827;49.482;7.716;2023-03-01T01:49:33;99716.88;;;0.16;77.60
11542;BME280;5827;49.482;7.716;2023-03-01T01:51:40;99719.25;;;0.01;77.54
11542;BME280;5827;49.482;7.716;2023-03-01T01:53:47;99703.91;;;-0.04;77.95
11542;BME280;5827;49.482;7.716;2023-03-01T01:55:55;99705.75;;;0.04;78.23
11542;BME280;5827;49.482;7.716;2023-03-01T01:58:02;99696.06;;;0.05;78.04
11542;BME280;5827;49.482;7.716;2023-03-01T02:00:08;99697.41;;;-0.09;78.32
11542;BME280;5827;49.482;7.716;2023-03-01T02:02:11;99692.91;;;0.01;77.85
11542;BME280;5827;49.482;7.716;2023-03-01T02:04:14;99685.13;;;-0.01;78.05
11542;BME280;5827;49.482;7.716;2023-03-01T02:06:20;99681.16;;;-0.05;78.42
11542;BME280;5827;49.482;7.716;2023-03-01T02:08:26;99674.47;;;0.01;78.64
11542;BME280;5827;49.482;7.716;2023-03-01T02:10:34;99681.78;;;-0.11;79.14
11542;BME280;5827;49.482;7.716;2023-03-01T02:12:36;99674.13;;;0.04;78.19
11542;BME280;5827;49.482;7.716;2023-03-01T02:14:39;99675.59;;;-0.02;79.03
11542;BME280;5827;49.482;7.716;2023-03-01T02:16:41;99669.22;;;-0.17;79.10
11542;BME280;5827;49.482;7.716;2023-03-01T02:18:43;99665.66;;;-0.08;78.73
11542;BME280;5827;49.482;7.716;2023-03-01T02:20:54;99668.75;;;-0.12;79.24
11542;BME280;5827;49.482;7.716;2023-03-01T02:22:59;99655.88;;;-0.15;78.90
11542;BME280;5827;49.482;7.716;2023-03-01T02:25:08;99667.41;;;-0.16;78.83
11542;BME280;5827;49.482;7.716;2023-03-01T02:27:12;99665.31;;;-0.13;78.87
11542;BME280;5827;49.482;7.716;2023-03-01T02:29:15;99662.66;;;-0.13;79.49
11542;BME280;5827;49.482;7.716;2023-03-01T02:31:19;99665.31;;;-0.13;79.53
11542;BME280;5827;49.482;7.716;2023-03-01T02:33:39;99657.53;;;-0.32;79.33
11542;BME280;5827;49.482;7.716;2023-03-01T02:35:41;99660.34;;;-0.34;79.09
11542;BME280;5827;49.482;7.716;2023-03-01T02:37:43;99656.22;;;-0.36;80.26
11542;BME280;5827;49.482;7.716;2023-03-01T02:39:48;99658.91;;;-0.28;79.77
11542;BME280;5827;49.482;7.716;2023-03-01T02:41:52;99650.78;;;-0.53;80.76
11542;BME280;5827;49.482;7.716;2023-03-01T02:43:54;99650.25;;;-0.20;79.47
11542;BME280;5827;49.482;7.716;2023-03-01T02:46:03;99645.38;;;-0.33;80.77
11542;BME280;5827;49.482;7.716;2023-03-01T02:48:05;99645.97;;;-0.21;80.69
11542;BME280;5827;49.482;7.716;2023-03-01T02:50:15;99645.66;;;-0.18;80.36
11542;BME280;5827;49.482;7.716;2023-03-01T02:52:37;99647.16;;;-0.16;80.06
11542;BME280;5827;49.482;7.716;2023-03-01T02:54:46;99647.97;;;-0.15;79.73
11542;BME280;5827;49.482;7.716;2023-03-01T02:56:49;99644.16;;;-0.21;79.10
11542;BME280;5827;49.482;7.716;2023-03-01T02:58:51;99645.06;;;-0.30;79.60
11542;BME280;5827;49.482;7.716;2023-03-01T03:00:53;99636.81;;;-0.35;79.96
11542;BME280;5827;49.482;7.716;2023-03-01T03:02:56;99631.00;;;-0.39;80.04
11542;BME280;5827;49.482;7.716;2023-03-01T03:04:58;99631.31;;;-0.42;79.75
11542;BME280;5827;49.482;7.716;2023-03-01T03:07:00;99625.91;;;-0.40;80.13
11542;BME280;5827;49.482;7.716;2023-03-01T03:09:02;99628.00;;;-0.44;79.87
11542;BME280;5827;49.482;7.716;2023-03-01T03:11:04;99622.75;;;-0.44;80.40
11542;BME280;5827;49.482;7.716;2023-03-01T03:13:07;99614.31;;;-0.47;80.01
11542;BME280;5827;49.482;7.716;2023-03-01T03:15:10;99611.09;;;-0.59;80.41
11542;BME280;5827;49.482;7.716;2023-03-01T03:17:12;99606.50;;;-0.75;81.11
11542;BME280;5827;49.482;7.716;2023-03-01T03:19:16;99604.69;;;-0.74;81.26
11542;BME280;5827;49.482;7.716;2023-03-01T03:21:18;99604.69;;;-0.74;81.00
11542;BME280;5827;49.482;7.716;2023-03-01T03:23:20;99596.72;;;-0.83;81.17
11542;BME280;5827;49.482;7.716;2023-03-01T03:25:22;99600.66;;;-0.87;82.03
11542;BME280;5827;49.482;7.716;2023-03-01T03:27:24;99600.13;;;-0.90;82.15
11542;BME280;5827;49.482;7.716;2023-03-01T03:29:25;99595.16;;;-0.93;82.38
11542;BME280;5827;49.482;7.716;2023-03-01T03:31:27;99600.75;;;-1.06;82.88
11542;BME280;5827;49.482;7.716;2023-03-01T03:33:28;99592.28;;;-1.18;83.78
11542;BME280;5827;49.482;7.716;2023-03-01T03:35:33;99595.19;;;-1.21;83.87
11542;BME280;5827;49.482;7.716;2023-03-01T03:37:36;99592.28;;;-1.18;83.74
11542;BME280;5827;49.482;7.716;2023-03-01T03:39:55;99586.63;;;-1.23;83.70
11542;BME280;5827;49.482;7.716;2023-03-01T03:41:57;99581.66;;;-1.26;84.55
11542;BME280;5827;49.482;7.716;2023-03-01T03:43:59;99578.44;;;-1.20;84.29
11542;BME280;5827;49.482;7.716;2023-03-01T03:46:01;99574.44;;;-1.24;84.95
11542;BME280;5827;49.482;7.716;2023-03-01T03:48:07;99575.84;;;-1.30;84.97
11542;BME280;5827;49.482;7.716;2023-03-01T03:50:12;99568.97;;;-1.31;84.72
11542;BME280;5827;49.482;7.716;2023-03-01T03:52:15;99572.19;;;-1.37;85.17
11542;BME280;5827;49.482;7.716;2023-03-01T03:54:16;99570.13;;;-1.43;85.19
11542;BME280;5827;49.482;7.716;2023-03-01T03:56:18;99568.91;;;-1.48;85.82
11542;BME280;5827;49.482;7.716;2023-03-01T03:58:22;99564.47;;;-1.48;86.42
11542;BME280;5827;49.482;7.716;2023-03-01T04:00:25;99562.16;;;-1.51;86.32
11542;BME280;5827;49.482;7.716;2023-03-01T04:02:27;99561.72;;;-1.46;86.66
11542;BME280;5827;49.482;7.716;2023-03-01T04:04:28;99568.31;;;-1.42;86.42
11542;BME280;5827;49.482;7.716;2023-03-01T04:06:30;99568.72;;;-1.37;86.52
11542;BME280;5827;49.482;7.716;2023-03-01T04:08:33;99568.19;;;-1.41;86.56
11542;BME280;5827;49.482;7.716;2023-03-01T04:10:36;99568.19;;;-1.41;86.82
11542;BME280;5827;49.482;7.716;2023-03-01T04:12:38;99569.84;;;-1.40;86.22
11542;BME280;5827;49.482;7.716;2023-03-01T04:14:40;99565.56;;;-1.41;86.36
11542;BME280;5827;49.482;7.716;2023-03-01T04:16:41;99568.19;;;-1.41;86.68
11542;BME280;5827;49.482;7.716;2023-03-01T04:18:43;99561.56;;;-1.45;86.30
11542;BME280;5827;49.482;7.716;2023-03-01T04:20:46;99564.03;;;-1.43;86.73
11542;BME280;5827;49.482;7.716;2023-03-01T04:22:47;99558.25;;;-1.47;87.24
11542;BME280;5827;49.482;7.716;2023-03-01T04:24:50;99554.88;;;-1.39;87.28
11542;BME280;5827;49.482;7.716;2023-03-01T04:26:51;99547.84;;;-1.39;87.00
11542;BME280;5827;49.482;7.716;2023-03-01T04:28:53;99559.75;;;-1.44;87.39
11542;BME280;5827;49.482;7.716;2023-03-01T04:30:56;99555.28;;;-1.34;87.30
11542;BME280;5827;49.482;7.716;2023-03-01T04:32:58;99561.00;;;-1.21;87.02
11542;BME280;5827;49.482;7.716;2023-03-01T04:34:59;99557.94;;;-1.16;86.30
11542;BME280;5827;49.482;7.716;2023-03-01T04:37:01;99557.56;;;-1.21;86.67
11542;BME280;5827;49.482;7.716;2023-03-01T04:39:02;99562.00;;;-1.22;86.68
11542;BME280;5827;49.482;7.716;2023-03-01T04:41:14;99559.91;;;-1.18;86.11
11542;BME280;5827;49.482;7.716;2023-03-01T04:43:16;99559.06;;;-1.19;86.19
11542;BME280;5827;49.482;7.716;2023-03-01T04:45:18;99564.34;;;-1.19;86.32
11542;BME280;5827;49.482;7.716;2023-03-01T04:47:19;99571.69;;;-1.22;86.19
11542;BME280;5827;49.482;7.716;2023-03-01T04:49:21;99563.78;;;-1.22;86.50
11542;BME280;5827;49.482;7.716;2023-03-01T04:51:23;99569.50;;;-1.27;86.82
11542;BME280;5827;49.482;7.716;2023-03-01T04:53:24;99563.00;;;-1.50;86.84
11542;BME280;5827;49.482;7.716;2023-03-01T04:55:26;99571.97;;;-1.25;86.51
11542;BME280;5827;49.482;7.716;2023-03-01T04:57:29;99564.81;;;-1.33;87.25
11542;BME280;5827;49.482;7.716;2023-03-01T04:59:31;99564.38;;;-1.29;87.17
11542;BME280;5827;49.482;7.716;2023-03-01T05:01:32;99565.28;;;-1.20;86.73
11542;BME280;5827;49.482;7.716;2023-03-01T05:03:35;99567.88;;;-1.38;86.57
11542;BME280;5827;49.482;7.716;2023-03-01T05:05:37;99561.56;;;-1.45;87.64
11542;BME280;5827;49.482;7.716;2023-03-01T05:07:39;99563.75;;;-1.40;87.52
11542;BME280;5827;49.482;7.716;2023-03-01T05:09:41;99564.81;;;-1.33;87.28
11542;BME280;5827;49.482;7.716;2023-03-01T05:11:42;99558.59;;;-1.32;87.40
11542;BME280;5827;49.482;7.716;2023-03-01T05:13:46;99558.56;;;-1.50;88.46
11542;BME280;5827;49.482;7.716;2023-03-01T05:15:48;99559.53;;;-1.23;87.29
11542;BME280;5827;49.482;7.716;2023-03-01T05:17:50;99558.38;;;-1.21;87.13
11542;BME280;5827;49.482;7.716;2023-03-01T05:19:51;99552.97;;;-1.19;86.96
11542;BME280;5827;49.482;7.716;2023-03-01T05:21:55;99556.00;;;-1.14;86.83
11542;BME280;5827;49.482;7.716;2023-03-01T05:24:06;99549.44;;;-1.10;86.77
11542;BME280;5827;49.482;7.716;2023-03-01T05:26:11;99550.59;;;-1.13;86.24
11542;BME280;5827;49.482;7.716;2023-03-01T05:28:13;99559.44;;;-1.14;86.32
11542;BME280;5827;49.482;7.716;2023-03-01T05:30:17;99551.84;;;-1.17;86.76
11542;BME280;5827;49.482;7.716;2023-03-01T05:32:18;99552.75;;;-1.26;86.78
11542;BME280;5827;49.482;7.716;2023-03-01T05:34:23;99552.47;;;-1.23;87.04
11542;BME280;5827;49.482;7.716;2023-03-01T05:36:25;99554.72;;;-1.28;88.18
11542;BME280;5827;49.482;7.716;2023-03-01T05:38:27;99554.03;;;-0.94;86.95
11542;BME280;5827;49.482;7.716;2023-03-01T05:40:28;99543.22;;;-0.91;87.09
11542;BME280;5827;49.482;7.716;2023-03-01T05:42:30;99550.34;;;-0.84;86.48
11542;BME280;5827;49.482;7.716;2023-03-01T05:44:31;99548.16;;;-0.70;85.57
11542;BME280;5827;49.482;7.716;2023-03-01T05:46:34;99559.22;;;-0.67;86.12
11542;BME280;5827;49.482;7.716;2023-03-01T05:48:36;99559.06;;;-0.65;85.49
11542;BME280;5827;49.482;7.716;2023-03-01T05:50:39;99553.59;;;-0.72;85.05
11542;BME280;5827;49.482;7.716;2023-03-01T05:52:41;99550.63;;;-0.69;85.80
11542;BME280;5827;49.482;7.716;2023-03-01T05:54:42;99561.03;;;-0.67;85.78
11542;BME280;5827;49.482;7.716;2023-03-01T05:56:44;99557.78;;;-0.61;84.90
11542;BME280;5827;49.482;7.716;2023-03-01T05:58:47;99560.78;;;-0.56;85.38
11542;BME280;5827;49.482;7.716;2023-03-01T06:00:49;99565.16;;;-0.65;85.51
11542;BME280;5827;49.482;7.716;2023-03-01T06:02:53;99562.38;;;-0.63;85.75
11542;BME280;5827;49.482;7.716;2023-03-01T06:04:54;99558.84;;;-0.54;85.07
11542;BME280;5827;49.482;7.716;2023-03-01T06:06:56;99559.28;;;-0.59;85.18
11542;BME280;5827;49.482;7.716;2023-03-01T06:08:57;99553.13;;;-0.49;85.63
11542;BME280;5827;49.482;7.716;2023-03-01T06:10:59;99548.34;;;-0.46;85.39
11542;BME280;5827;49.482;7.716;2023-03-01T06:13:00;99559.03;;;-0.47;85.34
11542;BME280;5827;49.482;7.716;2023-03-01T06:15:03;99552.84;;;-0.38;84.66
11542;BME280;5827;49.482;7.716;2023-03-01T06:17:04;99548.59;;;-0.39;84.56
11542;BME280;5827;49.482;7.716;2023-03-01T06:19:07;99552.56;;;-0.35;84.72
11542;BME280;5827;49.482;7.716;2023-03-01T06:21:09;99551.28;;;-0.31;84.55
11542;BME280;5827;49.482;7.716;2023-03-01T06:23:10;99555.84;;;-0.33;84.67
11542;BME280;5827;49.482;7.716;2023-03-01T06:25:14;99552.41;;;-0.34;84.65
11542;BME280;5827;49.482;7.716;2023-03-01T06:27:15;99549.00;;;-0.26;84.84
11542;BME280;5827;49.482;7.716;2023-03-01T06:29:17;99548.72;;;-0.15;83.96
11542;BME280;5827;49.482;7.716;2023-03-01T06:31:18;99547.16;;;-0.08;83.62
11542;BME280;5827;49.482;7.716;2023-03-01T06:33:20;99546.09;;;-0.15;84.26
11542;BME280;5827;49.482;7.716;2023-03-01T06:35:25;99548.06;;;-0.17;85.13
11542;BME280;5827;49.482;7.716;2023-03-01T06:37:30;99544.34;;;-0.06;84.38
11542;BME280;5827;49.482;7.716;2023-03-01T06:39:31;99541.94;;;0.09;83.35
11542;BME280;5827;49.482;7.716;2023-03-01T06:41:33;99544.81;;;0.15;82.99
11542;BME280;5827;49.482;7.716;2023-03-01T06:43:34;99547.19;;;0.01;83.01
11542;BME280;5827;49.482;7.716;2023-03-01T06:45:36;99540.63;;;0.05;83.65
11542;BME280;5827;49.482;7.716;2023-03-01T06:47:38;99546.50;;;0.24;82.81
11542;BME280;5827;49.482;7.716;2023-03-01T06:49:40;99545.88;;;0.39;82.49
11542;BME280;5827;49.482;7.716;2023-03-01T06:51:43;99546.41;;;0.42;81.92
11542;BME280;5827;49.482;7.716;2023-03-01T06:53:45;99533.00;;;0.36;82.24
11542;BME280;5827;49.482;7.716;2023-03-01T06:55:47;99539.97;;;0.37;81.67
11542;BME280;5827;49.482;7.716;2023-03-01T06:57:48;99543.47;;;0.54;81.55
11542;BME280;5827;49.482;7.716;2023-03-01T06:59:50;99542.50;;;0.63;81.06
11542;BME280;5827;49.482;7.716;2023-03-01T07:01:51;99542.84;;;0.68;80.77
11542;BME280;5827;49.482;7.716;2023-03-01T07:03:53;99548.81;;;0.70;80.78
11542;BME280;5827;49.482;7.716;2023-03-01T07:05:54;99547.25;;;0.59;80.10
11542;BME280;5827;49.482;7.716;2023-03-01T07:07:57;99540.06;;;0.69;79.35
11542;BME280;5827;49.482;7.716;2023-03-01T07:09:58;99541.56;;;0.80;79.57
11542;BME280;5827;49.482;7.716;2023-03-01T07:12:00;99537.47;;;0.94;78.93
11542;BME280;5827;49.482;7.716;2023-03-01T07:14:02;99545.38;;;0.86;78.10
11542;BME280;5827;49.482;7.716;2023-03-01T07:16:04;99533.69;;;0.96;78.15
11542;BME280;5827;49.482;7.716;2023-03-01T07:18:06;99537.78;;;0.91;79.17
11542;BME280;5827;49.482;7.716;2023-03-01T07:20:09;99536.28;;;0.80;78.79
11542;BME280;5827;49.482;7.716;2023-03-01T07:22:10;99536.78;;;0.75;77.68
11542;BME280;5827;49.482;7.716;2023-03-01T07:24:13;99536.34;;;1.13;77.23
11542;BME280;5827;49.482;7.716;2023-03-01T07:26:15;99535.50;;;1.04;77.57
11542;BME280;5827;49.482;7.716;2023-03-01T07:28:16;99539.00;;;1.21;76.63
11542;BME280;5827;49.482;7.716;2023-03-01T07:30:18;99533.22;;;1.25;76.44
11542;BME280;5827;49.482;7.716;2023-03-01T07:32:19;99536.34;;;1.13;76.50
11542;BME280;5827;49.482;7.716;2023-03-01T07:34:21;99529.06;;;0.98;77.31
11542;BME280;5827;49.482;7.716;2023-03-01T07:36:24;99544.59;;;1.18;76.69
11542;BME280;5827;49.482;7.716;2023-03-01T07:38:26;99532.72;;;0.97;76.03
11542;BME280;5827;49.482;7.716;2023-03-01T07:40:28;99533.34;;;0.91;76.32
11542;BME280;5827;49.482;7.716;2023-03-01T07:42:30;99531.91;;;1.30;76.30
11542;BME280;5827;49.482;7.716;2023-03-01T07:44:31;99528.59;;;1.27;75.50
11542;BME280;5827;49.482;7.716;2023-03-01T07:46:33;99534.38;;;1.31;75.37
11542;BME280;5827;49.482;7.716;2023-03-01T07:48:35;99533.38;;;1.48;75.30
11542;BME280;5827;49.482;7.716;2023-03-01T07:50:37;99531.06;;;1.21;76.18
11542;BME280;5827;49.482;7.716;2023-03-01T07:52:38;99535.03;;;1.49;74.37
11542;BME280;5827;49.482;7.716;2023-03-01T07:54:42;99534.19;;;1.41;75.27
11542;BME280;5827;49.482;7.716;2023-03-01T07:56:45;99535.34;;;1.55;74.95
11542;BME280;5827;49.482;7.716;2023-03-01T07:58:47;99530.75;;;1.48;75.07
11542;BME280;5827;49.482;7.716;2023-03-01T08:00:48;99526.28;;;1.41;74.41
11542;BME280;5827;49.482;7.716;2023-03-01T08:02:50;99523.81;;;1.47;73.88
11542;BME280;5827;49.482;7.716;2023-03-01T08:04:51;99524.09;;;1.69;73.31
11542;BME280;5827;49.482;7.716;2023-03-01T08:06:53;99531.56;;;1.65;73.28
11542;BME280;5827;49.482;7.716;2023-03-01T08:08:55;99523.28;;;1.85;72.88
11542;BME280;5827;49.482;7.716;2023-03-01T08:10:57;99519.00;;;1.75;71.75
11542;BME280;5827;49.482;7.716;2023-03-01T08:13:00;99524.78;;;1.79;73.16
11542;BME280;5827;49.482;7.716;2023-03-01T08:15:02;99528.88;;;1.90;71.88
11542;BME280;5827;49.482;7.716;2023-03-01T08:17:03;99521.59;;;1.92;72.43
11542;BME280;5827;49.482;7.716;2023-03-01T08:19:05;99525.03;;;2.09;72.16
11542;BME280;5827;49.482;7.716;2023-03-01T08:21:08;99535.19;;;2.28;71.49
11542;BME280;5827;49.482;7.716;2023-03-01T08:23:10;99533.00;;;2.40;70.69
11542;BME280;5827;49.482;7.716;2023-03-01T08:25:12;99522.25;;;2.02;70.47
11542;BME280;5827;49.482;7.716;2023-03-01T08:27:14;99522.41;;;2.00;70.64
11542;BME280;5827;49.482;7.716;2023-03-01T08:29:17;99521.34;;;2.18;70.22
11542;BME280;5827;49.482;7.716;2023-03-01T08:31:21;99517.72;;;2.11;71.13
11542;BME280;5827;49.482;7.716;2023-03-01T08:33:24;99522.19;;;2.18;70.56
11542;BME280;5827;49.482;7.716;2023-03-01T08:35:25;99518.25;;;2.06;70.86
11542;BME280;5827;49.482;7.716;2023-03-01T08:37:27;99527.34;;;2.12;71.02
11542;BME280;5827;49.482;7.716;2023-03-01T08:39:31;99516.47;;;1.98;71.43
11542;BME280;5827;49.482;7.716;2023-03-01T08:41:32;99523.50;;;2.22;70.66
11542;BME280;5827;49.482;7.716;2023-03-01T08:43:34;99518.00;;;2.32;69.37
11542;BME280;5827;49.482;7.716;2023-03-01T08:45:37;99518.47;;;2.36;68.79
11542;BME280;5827;49.482;7.716;2023-03-01T08:47:38;99516.78;;;2.43;68.70
11542;BME280;5827;49.482;7.716;2023-03-01T08:49:40;99520.06;;;2.53;68.20
11542;BME280;5827;49.482;7.716;2023-03-01T08:51:42;99514.41;;;2.56;68.79
11542;BME280;5827;49.482;7.716;2023-03-01T08:53:43;99519.53;;;2.58;68.08
11542;BME280;5827;49.482;7.716;2023-03-01T08:55:45;99504.09;;;2.69;67.13
11542;BME280;5827;49.482;7.716;2023-03-01T08:57:46;99509.38;;;2.69;68.18
11542;BME280;5827;49.482;7.716;2023-03-01T08:59:48;99507.50;;;2.78;67.55
11542;BME280;5827;49.482;7.716;2023-03-01T09:01:51;99511.72;;;2.64;68.05
11542;BME280;5827;49.482;7.716;2023-03-01T09:03:53;99508.69;;;2.75;67.65
11542;BME280;5827;49.482;7.716;2023-03-01T09:05:59;99500.63;;;2.69;68.34
11542;BME280;5827;49.482;7.716;2023-03-01T09:08:02;99500.03;;;2.59;68.17
11542;BME280;5827;49.482;7.716;2023-03-01T09:10:04;99498.75;;;3.00;67.08
11542;BME280;5827;49.482;7.716;2023-03-01T09:12:06;99491.59;;;3.09;67.10
11542;BME280;5827;49.482;7.716;2023-03-01T09:14:07;99491.69;;;3.16;66.72
11542;BME280;5827;49.482;7.716;2023-03-01T09:16:11;99496.94;;;3.24;66.55
11542;BME280;5827;49.482;7.716;2023-03-01T09:18:14;99492.75;;;3.06;65.67
11542;BME280;5827;49.482;7.716;2023-03-01T09:20:16;99489.47;;;3.27;65.71
11542;BME280;5827;49.482;7.716;2023-03-01T09:22:17;99490.81;;;3.23;66.21
11542;BME280;5827;49.482;7.716;2023-03-01T09:24:20;99483.72;;;3.39;66.17
11542;BME280;5827;49.482;7.716;2023-03-01T09:26:23;99491.97;;;3.44;65.55
11542;BME280;5827;49.482;7.716;2023-03-01T09:28:25;99484.06;;;3.21;65.03
11542;BME280;5827;49.482;7.716;2023-03-01T09:30:27;99487.28;;;3.31;65.05
11542;BME280;5827;49.482;7.716;2023-03-01T09:32:29;99489.63;;;3.49;64.94
11542;BME280;5827;49.482;7.716;2023-03-01T09:34:32;99494.72;;;3.50;63.57
11542;BME280;5827;49.482;7.716;2023-03-01T09:36:54;99487.44;;;3.67;64.86
11542;BME280;5827;49.482;7.716;2023-03-01T09:38:56;99489.00;;;3.76;63.83
11542;BME280;5827;49.482;7.716;2023-03-01T09:41:00;99492.00;;;3.73;63.62
11542;BME280;5827;49.482;7.716;2023-03-01T09:43:06;99477.47;;;3.54;62.89
11542;BME280;5827;49.482;7.716;2023-03-01T09:45:11;99482.75;;;3.54;62.88
11542;BME280;5827;49.482;7.716;2023-03-01T09:47:20;99484.34;;;3.64;62.52
11542;BME280;5827;49.482;7.716;2023-03-01T09:49:24;99481.88;;;3.77;63.23
11542;BME280;5827;49.482;7.716;2023-03-01T09:51:30;99485.25;;;4.00;62.54
11542;BME280;5827;49.482;7.716;2023-03-01T09:53:33;99475.38;;;4.09;61.58
11542;BME280;5827;49.482;7.716;2023-03-01T09:55:39;99471.06;;;4.23;61.83
11542;BME280;5827;49.482;7.716;2023-03-01T09:57:48;99479.50;;;4.26;61.73
11542;BME280;5827;49.482;7.716;2023-03-01T10:00:12;99480.13;;;4.14;61.60
11542;BME280;5827;49.482;7.716;2023-03-01T10:02:24;99484.34;;;3.93;61.18
11542;BME280;5827;49.482;7.716;2023-03-01T10:04:32;99484.25;;;4.01;61.46
11542;BME280;5827;49.482;7.716;2023-03-01T10:06:43;99488.47;;;3.96;62.44
11542;BME280;5827;49.482;7.716;2023-03-01T10:08:51;99479.97;;;4.00;62.03
11542;BME280;5827;49.482;7.716;2023-03-01T10:10:55;99481.50;;;4.24;61.55
11542;BME280;5827;49.482;7.716;2023-03-01T10:12:57;99477.75;;;4.19;62.36
11542;BME280;5827;49.482;7.716;2023-03-01T10:15:04;99480.47;;;4.25;61.40
11542;BME280;5827;49.482;7.716;2023-03-01T10:17:12;99504.91;;;4.21;61.10
11542;BME280;5827;49.482;7.716;2023-03-01T10:19:23;99495.22;;;3.69;61.55
11542;BME280;5827;49.482;7.716;2023-03-01T10:21:26;99480.88;;;3.78;61.27
11542;BME280;5827;49.482;7.716;2023-03-01T10:23:32;99477.13;;;4.02;61.48
11542;BME280;5827;49.482;7.716;2023-03-01T10:25:43;99471.38;;;4.13;60.36
11542;BME280;5827;49.482;7.716;2023-03-01T10:27:52;99472.84;;;4.52;60.25
11542;BME280;5827;49.482;7.716;2023-03-01T10:30:01;99475.00;;;4.27;60.56
11542;BME280;5827;49.482;7.716;2023-03-01T10:32:08;99479.31;;;4.28;60.32
11542;BME280;5827;49.482;7.716;2023-03-01T10:34:14;99475.00;;;4.27;59.65
11542;BME280;5827;49.482;7.716;2023-03-01T10:36:16;99470.13;;;4.45;60.15
11542;BME280;5827;49.482;7.716;2023-03-01T10:38:18;99466.94;;;4.71;58.95
11542;BME280;5827;49.482;7.716;2023-03-01T10:40:22;99476.41;;;4.59;58.34
11542;BME280;5827;49.482;7.716;2023-03-01T10:42:27;99475.41;;;4.60;59.61
11542;BME280;5827;49.482;7.716;2023-03-01T10:44:38;99467.75;;;4.72;58.78
11542;BME280;5827;49.482;7.716;2023-03-01T10:46:40;99460.50;;;4.80;59.00
11542;BME280;5827;49.482;7.716;2023-03-01T10:48:42;99460.38;;;4.89;58.18
11542;BME280;5827;49.482;7.716;2023-03-01T10:50:45;99456.28;;;4.86;57.85
11542;BME280;5827;49.482;7.716;2023-03-01T10:52:57;99455.84;;;4.82;58.56
11542;BME280;5827;49.482;7.716;2023-03-01T10:55:03;99454.44;;;4.87;59.45
11542;BME280;5827;49.482;7.716;2023-03-01T10:57:27;99450.19;;;5.14;56.94
11542;BME280;5827;49.482;7.716;2023-03-01T10:59:31;99455.56;;;5.20;57.67
11542;BME280;5827;49.482;7.716;2023-03-01T11:01:34;99453.84;;;5.13;56.61
11542;BME280;5827;49.482;7.716;2023-03-01T11:03:38;99451.94;;;5.28;58.20
11542;BME280;5827;49.482;7.716;2023-03-01T11:05:52;99436.16;;;5.20;56.57
11542;BME280;5827;49.482;7.716;2023-03-01T11:07:56;99447.91;;;5.10;57.93